createdAt,value
2019-03-06T00:00:05.935Z,1005.86
2019-03-06T00:01:05.916Z,1005.88
2019-03-06T00:02:05.916Z,1005.91
2019-03-06T00:03:05.903Z,1005.91
2019-03-06T00:04:05.883Z,1005.94
2019-03-06T00:05:05.873Z,1005.92
2019-03-06T00:06:05.863Z,1005.96
2019-03-06T00:07:05.864Z,1005.95
2019-03-06T00:08:05.838Z,1005.99
2019-03-06T00:09:05.828Z,1005.99
2019-03-06T00:10:05.816Z,1005.97
2019-03-06T00:11:05.806Z,1005.95
2019-03-06T00:12:05.808Z,1005.97
2019-03-06T00:13:05.783Z,1005.94
2019-03-06T00:14:05.775Z,1005.96
2019-03-06T00:15:05.767Z,1005.96
2019-03-06T00:16:05.746Z,1005.97
2019-03-06T00:17:05.751Z,1005.96
2019-03-06T00:18:05.726Z,1005.98
2019-03-06T00:19:05.712Z,1005.95
2019-03-06T00:20:05.709Z,1005.97
2019-03-06T00:21:05.694Z,1005.95
2019-03-06T00:22:05.690Z,1005.95
2019-03-06T00:23:05.669Z,1005.90
2019-03-06T00:24:05.659Z,1005.92
2019-03-06T00:25:05.648Z,1005.88
2019-03-06T00:26:05.680Z,1005.87
2019-03-06T00:27:05.637Z,1005.87
2019-03-06T00:29:27.342Z,1005.93
2019-03-06T00:30:30.211Z,1005.90
2019-03-06T00:31:27.511Z,1005.89
2019-03-06T00:32:27.570Z,1005.95
2019-03-06T00:33:27.484Z,1006.01
2019-03-06T00:34:27.427Z,1005.98
2019-03-06T00:37:17.029Z,1006.02
2019-03-06T00:38:16.797Z,1005.98
2019-03-06T00:39:16.784Z,1006.02
2019-03-06T00:40:16.771Z,1005.99
2019-03-06T00:41:17.300Z,1005.96
2019-03-06T00:42:16.760Z,1005.98
2019-03-06T00:43:16.738Z,1006.01
2019-03-06T00:44:16.753Z,1005.99
2019-03-06T00:45:16.720Z,1006.03
2019-03-06T00:46:16.703Z,1006.07
2019-03-06T00:47:16.717Z,1006.05
2019-03-06T00:48:16.685Z,1006.08
2019-03-06T00:49:16.671Z,1006.08
2019-03-06T00:50:16.669Z,1006.13
2019-03-06T00:51:16.652Z,1006.09
2019-03-06T00:52:16.646Z,1006.05
2019-03-06T00:53:16.625Z,1006.10
2019-03-06T00:54:16.627Z,1006.12
2019-03-06T00:55:16.850Z,1006.13
2019-03-06T00:56:16.846Z,1006.13
2019-03-06T00:57:16.589Z,1006.13
2019-03-06T00:58:16.565Z,1006.13
2019-03-06T00:59:16.554Z,1006.13
2019-03-06T01:00:16.550Z,1006.17
2019-03-06T01:01:16.532Z,1006.13
2019-03-06T01:02:16.535Z,1006.13
2019-03-06T01:03:16.511Z,1006.15
2019-03-06T01:04:16.499Z,1006.16
2019-03-06T01:05:16.488Z,1006.12
2019-03-06T01:06:16.475Z,1006.11
2019-03-06T01:07:16.476Z,1006.11
2019-03-06T01:08:16.459Z,1006.14
2019-03-06T01:09:16.449Z,1006.13
2019-03-06T01:10:16.434Z,1006.15
2019-03-06T01:11:16.423Z,1006.16
2019-03-06T01:12:16.425Z,1006.15
2019-03-06T01:13:16.402Z,1006.13
2019-03-06T01:14:16.388Z,1006.20
2019-03-06T01:15:16.377Z,1006.16
2019-03-06T01:16:16.368Z,1006.16
2019-03-06T01:17:16.370Z,1006.18
2019-03-06T01:18:16.348Z,1006.21
2019-03-06T01:19:16.336Z,1006.21
2019-03-06T01:20:16.329Z,1006.28
2019-03-06T01:21:16.317Z,1006.24
2019-03-06T01:22:16.311Z,1006.25
2019-03-06T01:23:16.292Z,1006.29
2019-03-06T01:24:16.283Z,1006.27
2019-03-06T01:25:16.284Z,1006.29
2019-03-06T01:26:16.256Z,1006.32
2019-03-06T01:27:16.255Z,1006.31
2019-03-06T01:28:16.240Z,1006.26
2019-03-06T01:29:16.224Z,1006.26
2019-03-06T01:30:16.215Z,1006.27
2019-03-06T01:31:16.202Z,1006.26
2019-03-06T01:32:16.209Z,1006.30
2019-03-06T01:33:16.179Z,1006.30
2019-03-06T01:34:16.165Z,1006.28
2019-03-06T01:35:16.157Z,1006.29
2019-03-06T01:36:16.144Z,1006.28
2019-03-06T01:37:16.162Z,1006.29
2019-03-06T01:38:16.122Z,1006.30
2019-03-06T01:39:23.967Z,1006.30
2019-03-06T01:40:16.333Z,1006.27
2019-03-06T01:41:16.089Z,1006.27
2019-03-06T01:42:16.083Z,1006.24
2019-03-06T01:43:16.102Z,1006.27
2019-03-06T01:44:16.077Z,1006.25
2019-03-06T01:45:16.234Z,1006.27
2019-03-06T01:46:16.037Z,1006.29
2019-03-06T01:47:16.022Z,1006.29
2019-03-06T01:48:16.023Z,1006.30
2019-03-06T01:49:16.002Z,1006.32
2019-03-06T01:50:15.989Z,1006.26
2019-03-06T01:51:15.981Z,1006.26
2019-03-06T01:52:15.966Z,1006.29
2019-03-06T01:53:15.970Z,1006.25
2019-03-06T01:54:15.945Z,1006.28
2019-03-06T01:55:15.932Z,1006.27
2019-03-06T01:56:15.928Z,1006.24
2019-03-06T01:57:15.913Z,1006.29
2019-03-06T01:58:28.172Z,1006.28
2019-03-06T01:59:15.931Z,1006.34
2019-03-06T02:00:15.883Z,1006.34
2019-03-06T02:01:15.875Z,1006.40
2019-03-06T02:02:15.858Z,1006.42
2019-03-06T02:03:15.856Z,1006.39
2019-03-06T02:04:15.889Z,1006.40
2019-03-06T02:05:15.829Z,1006.42
2019-03-06T02:06:15.838Z,1006.40
2019-03-06T02:07:15.817Z,1006.38
2019-03-06T02:08:15.793Z,1006.43
2019-03-06T02:09:15.816Z,1006.44
2019-03-06T02:10:15.771Z,1006.41
2019-03-06T02:11:15.782Z,1006.39
2019-03-06T02:12:15.752Z,1006.41
2019-03-06T02:13:15.740Z,1006.38
2019-03-06T02:14:15.733Z,1006.39
2019-03-06T02:15:15.717Z,1006.40
2019-03-06T02:16:15.715Z,1006.35
2019-03-06T02:17:15.708Z,1006.35
2019-03-06T02:18:15.685Z,1006.36
2019-03-06T02:19:15.704Z,1006.36
2019-03-06T02:20:15.667Z,1006.36
2019-03-06T02:21:15.652Z,1006.37
2019-03-06T02:22:15.637Z,1006.39
2019-03-06T02:23:15.640Z,1006.35
2019-03-06T02:24:15.637Z,1006.39
2019-03-06T02:25:15.637Z,1006.40
2019-03-06T02:26:15.603Z,1006.38
2019-03-06T02:27:15.851Z,1006.38
2019-03-06T02:28:15.574Z,1006.40
2019-03-06T02:29:15.570Z,1006.41
2019-03-06T02:30:15.551Z,1006.41
2019-03-06T02:31:15.539Z,1006.42
2019-03-06T02:32:15.525Z,1006.42
2019-03-06T02:33:15.516Z,1006.42
2019-03-06T02:34:15.516Z,1006.48
2019-03-06T02:35:15.498Z,1006.45
2019-03-06T02:36:15.483Z,1006.46
2019-03-06T02:37:15.471Z,1006.44
2019-03-06T02:38:15.461Z,1006.46
2019-03-06T02:39:15.469Z,1006.43
2019-03-06T02:40:15.446Z,1006.43
2019-03-06T02:41:15.432Z,1006.45
2019-03-06T02:42:15.418Z,1006.44
2019-03-06T02:43:15.405Z,1006.46
2019-03-06T02:44:15.406Z,1006.48
2019-03-06T02:45:15.382Z,1006.48
2019-03-06T02:46:15.379Z,1006.42
2019-03-06T02:47:15.378Z,1006.46
2019-03-06T02:48:15.350Z,1006.43
2019-03-06T02:49:15.349Z,1006.48
2019-03-06T02:50:15.344Z,1006.41
2019-03-06T02:51:15.324Z,1006.43
2019-03-06T02:52:15.313Z,1006.42
2019-03-06T02:53:15.308Z,1006.41
2019-03-06T02:54:15.294Z,1006.43
2019-03-06T02:55:15.283Z,1006.49
2019-03-06T02:56:15.261Z,1006.47
2019-03-06T02:57:15.250Z,1006.46
2019-03-06T02:58:15.249Z,1006.50
2019-03-06T02:59:15.237Z,1006.49
2019-03-06T03:00:15.221Z,1006.49
2019-03-06T03:01:15.205Z,1006.47
2019-03-06T03:02:15.200Z,1006.43
2019-03-06T03:03:15.222Z,1006.42
2019-03-06T03:04:15.184Z,1006.43
2019-03-06T03:05:15.160Z,1006.43
2019-03-06T03:06:15.152Z,1006.44
2019-03-06T03:07:15.141Z,1006.47
2019-03-06T03:08:15.128Z,1006.45
2019-03-06T03:09:15.135Z,1006.48
2019-03-06T03:10:15.106Z,1006.47
2019-03-06T03:11:15.102Z,1006.51
2019-03-06T03:12:15.090Z,1006.55
2019-03-06T03:13:15.080Z,1006.51
2019-03-06T03:14:15.096Z,1006.52
2019-03-06T03:15:15.053Z,1006.54
2019-03-06T03:16:15.046Z,1006.56
2019-03-06T03:17:15.031Z,1006.55
2019-03-06T03:18:15.018Z,1006.55
2019-03-06T03:19:15.019Z,1006.54
2019-03-06T03:20:15.018Z,1006.53
2019-03-06T03:21:14.993Z,1006.57
2019-03-06T03:22:22.251Z,1006.55
2019-03-06T03:23:14.959Z,1006.49
2019-03-06T03:24:14.961Z,1006.52
2019-03-06T03:25:14.977Z,1006.52
2019-03-06T03:26:14.949Z,1006.51
2019-03-06T03:27:22.086Z,1006.53
2019-03-06T03:28:14.912Z,1006.46
2019-03-06T03:29:14.909Z,1006.51
2019-03-06T03:30:22.161Z,1006.50
2019-03-06T03:31:14.887Z,1006.51
2019-03-06T03:32:14.871Z,1006.49
2019-03-06T03:33:14.852Z,1006.51
2019-03-06T03:34:14.854Z,1006.53
2019-03-06T03:35:14.841Z,1006.52
2019-03-06T03:36:14.830Z,1006.53
2019-03-06T03:37:14.827Z,1006.50
2019-03-06T03:38:14.792Z,1006.57
2019-03-06T03:39:14.794Z,1006.56
2019-03-06T03:40:14.803Z,1006.56
2019-03-06T03:41:14.768Z,1006.59
2019-03-06T03:42:14.764Z,1006.60
2019-03-06T03:43:14.752Z,1006.61
2019-03-06T03:44:14.864Z,1006.61
2019-03-06T03:45:14.724Z,1006.64
2019-03-06T03:46:14.715Z,1006.62
2019-03-06T03:47:14.691Z,1006.61
2019-03-06T03:48:14.682Z,1006.61
2019-03-06T03:49:14.677Z,1006.60
2019-03-06T03:50:14.672Z,1006.60
2019-03-06T03:51:14.648Z,1006.60
2019-03-06T03:52:14.638Z,1006.60
2019-03-06T03:53:14.635Z,1006.56
2019-03-06T03:54:14.621Z,1006.59
2019-03-06T03:55:14.626Z,1006.58
2019-03-06T03:56:14.595Z,1006.60
2019-03-06T03:57:14.598Z,1006.53
2019-03-06T03:58:14.585Z,1006.57
2019-03-06T03:59:14.562Z,1006.57
2019-03-06T04:00:14.566Z,1006.58
2019-03-06T04:01:14.540Z,1006.56
2019-03-06T04:02:14.530Z,1006.59
2019-03-06T04:03:14.518Z,1006.56
2019-03-06T04:04:14.512Z,1006.57
2019-03-06T04:05:14.510Z,1006.53
2019-03-06T04:06:14.487Z,1006.57
2019-03-06T04:07:14.475Z,1006.56
2019-03-06T04:08:14.468Z,1006.54
2019-03-06T04:09:14.454Z,1006.58
2019-03-06T04:10:14.454Z,1006.56
2019-03-06T04:11:14.434Z,1006.60
2019-03-06T04:12:14.420Z,1006.55
2019-03-06T04:13:14.409Z,1006.58
2019-03-06T04:14:14.395Z,1006.60
2019-03-06T04:15:14.399Z,1006.61
2019-03-06T04:16:15.409Z,1006.59
2019-03-06T04:17:14.364Z,1006.58
2019-03-06T04:18:14.353Z,1006.65
2019-03-06T04:19:14.343Z,1006.61
2019-03-06T04:20:14.351Z,1006.62
2019-03-06T04:21:14.323Z,1006.59
2019-03-06T04:22:14.309Z,1006.59
2019-03-06T04:23:14.299Z,1006.64
2019-03-06T04:24:14.283Z,1006.66
2019-03-06T04:25:14.288Z,1006.61
2019-03-06T04:26:14.262Z,1006.69
2019-03-06T04:27:14.254Z,1006.70
2019-03-06T04:28:14.241Z,1006.67
2019-03-06T04:29:14.229Z,1006.68
2019-03-06T04:30:14.232Z,1006.65
2019-03-06T04:31:14.207Z,1006.66
2019-03-06T04:32:14.197Z,1006.70
2019-03-06T04:33:14.183Z,1006.72
2019-03-06T04:34:14.173Z,1006.70
2019-03-06T04:35:14.178Z,1006.72
2019-03-06T04:36:14.153Z,1006.69
2019-03-06T04:37:14.141Z,1006.66
2019-03-06T04:38:14.128Z,1006.66
2019-03-06T04:39:14.119Z,1006.68
2019-03-06T04:40:14.114Z,1006.68
2019-03-06T04:41:14.097Z,1006.69
2019-03-06T04:42:14.088Z,1006.66
2019-03-06T04:43:14.073Z,1006.63
2019-03-06T04:44:14.062Z,1006.63
2019-03-06T04:45:14.071Z,1006.64
2019-03-06T04:46:14.040Z,1006.65
2019-03-06T04:47:14.028Z,1006.72
2019-03-06T04:48:14.019Z,1006.65
2019-03-06T04:49:14.011Z,1006.64
2019-03-06T04:50:14.009Z,1006.70
2019-03-06T04:51:13.983Z,1006.71
2019-03-06T04:52:13.971Z,1006.70
2019-03-06T04:53:13.959Z,1006.73
2019-03-06T04:54:13.950Z,1006.73
2019-03-06T04:55:13.956Z,1006.72
2019-03-06T04:56:13.927Z,1006.72
2019-03-06T04:57:13.922Z,1006.68
2019-03-06T04:58:13.906Z,1006.68
2019-03-06T04:59:13.893Z,1006.67
2019-03-06T05:00:13.892Z,1006.66
2019-03-06T05:01:13.871Z,1006.65
2019-03-06T05:02:13.870Z,1006.63
2019-03-06T05:03:13.859Z,1006.61
2019-03-06T05:04:13.844Z,1006.64
2019-03-06T05:05:13.841Z,1006.67
2019-03-06T05:06:13.818Z,1006.60
2019-03-06T05:07:13.808Z,1006.68
2019-03-06T05:08:13.796Z,1006.63
2019-03-06T05:09:13.783Z,1006.64
2019-03-06T05:10:13.782Z,1006.60
2019-03-06T05:11:13.763Z,1006.61
2019-03-06T05:12:13.750Z,1006.62
2019-03-06T05:13:13.739Z,1006.60
2019-03-06T05:14:13.727Z,1006.63
2019-03-06T05:15:13.726Z,1006.61
2019-03-06T05:16:13.709Z,1006.61
2019-03-06T05:17:13.696Z,1006.61
2019-03-06T05:18:13.687Z,1006.65
2019-03-06T05:19:13.669Z,1006.66
2019-03-06T05:20:13.670Z,1006.68
2019-03-06T05:21:13.649Z,1006.66
2019-03-06T05:22:13.641Z,1006.68
2019-03-06T05:23:13.627Z,1006.70
2019-03-06T05:24:13.614Z,1006.69
2019-03-06T05:25:13.619Z,1006.70
2019-03-06T05:26:13.593Z,1006.80
2019-03-06T05:27:13.581Z,1006.75
2019-03-06T05:28:13.577Z,1006.81
2019-03-06T05:29:13.559Z,1006.79
2019-03-06T05:30:13.561Z,1006.82
2019-03-06T05:31:13.536Z,1006.80
2019-03-06T05:32:21.151Z,1006.83
2019-03-06T05:33:20.862Z,1006.80
2019-03-06T05:34:21.942Z,1006.84
2019-03-06T05:35:20.836Z,1006.82
2019-03-06T05:36:13.749Z,1006.80
2019-03-06T05:37:13.479Z,1006.83
2019-03-06T05:38:13.467Z,1006.76
2019-03-06T05:39:13.447Z,1006.71
2019-03-06T05:40:13.442Z,1006.75
2019-03-06T05:41:13.436Z,1006.72
2019-03-06T05:42:13.413Z,1006.74
2019-03-06T05:43:13.411Z,1006.72
2019-03-06T05:44:13.403Z,1006.76
2019-03-06T05:45:13.383Z,1006.73
2019-03-06T05:46:13.459Z,1006.75
2019-03-06T05:47:13.369Z,1006.74
2019-03-06T05:48:13.535Z,1006.73
2019-03-06T05:49:13.341Z,1006.75
2019-03-06T05:50:13.328Z,1006.79
2019-03-06T05:51:13.326Z,1006.78
2019-03-06T05:52:13.306Z,1006.76
2019-03-06T05:53:13.297Z,1006.82
2019-03-06T05:54:13.280Z,1006.77
2019-03-06T05:55:13.274Z,1006.84
2019-03-06T05:56:13.270Z,1006.82
2019-03-06T05:57:13.246Z,1006.88
2019-03-06T05:58:13.238Z,1006.85
2019-03-06T05:59:13.225Z,1006.87
2019-03-06T06:00:13.215Z,1006.89
2019-03-06T06:01:13.211Z,1006.90
2019-03-06T06:02:13.196Z,1006.86
2019-03-06T06:03:13.181Z,1006.89
2019-03-06T06:04:13.173Z,1006.93
2019-03-06T06:05:13.164Z,1006.89
2019-03-06T06:06:13.158Z,1006.89
2019-03-06T06:07:13.135Z,1006.83
2019-03-06T06:08:13.132Z,1006.84
2019-03-06T06:09:13.116Z,1006.82
2019-03-06T06:10:13.103Z,1006.87
2019-03-06T06:11:13.105Z,1006.82
2019-03-06T06:12:13.080Z,1006.85
2019-03-06T06:13:13.069Z,1006.84
2019-03-06T06:14:13.056Z,1006.78
2019-03-06T06:15:13.047Z,1006.74
2019-03-06T06:16:13.061Z,1006.72
2019-03-06T06:17:13.027Z,1006.69
2019-03-06T06:18:13.012Z,1006.71
2019-03-06T06:19:13.006Z,1006.71
2019-03-06T06:20:12.989Z,1006.74
2019-03-06T06:21:12.989Z,1006.74
2019-03-06T06:22:12.972Z,1006.74
2019-03-06T06:23:12.956Z,1006.71
2019-03-06T06:24:12.946Z,1006.73
2019-03-06T06:25:12.949Z,1006.77
2019-03-06T06:26:12.962Z,1006.77
2019-03-06T06:27:12.918Z,1006.79
2019-03-06T06:28:12.907Z,1006.76
2019-03-06T06:29:12.900Z,1006.77
2019-03-06T06:30:12.890Z,1006.75
2019-03-06T06:31:12.869Z,1006.76
2019-03-06T06:32:12.869Z,1006.71
2019-03-06T06:33:12.845Z,1006.72
2019-03-06T06:34:12.837Z,1006.71
2019-03-06T06:35:12.823Z,1006.73
2019-03-06T06:36:12.815Z,1006.68
2019-03-06T06:37:12.814Z,1006.71
2019-03-06T06:38:12.792Z,1006.71
2019-03-06T06:39:12.781Z,1006.69
2019-03-06T06:40:12.771Z,1006.71
2019-03-06T06:41:12.757Z,1006.70
2019-03-06T06:42:12.756Z,1006.74
2019-03-06T06:43:12.733Z,1006.75
2019-03-06T06:44:12.727Z,1006.78
2019-03-06T06:45:12.711Z,1006.79
2019-03-06T06:46:12.719Z,1006.81
2019-03-06T06:47:12.713Z,1006.80
2019-03-06T06:48:12.718Z,1006.80
2019-03-06T06:49:12.676Z,1006.82
2019-03-06T06:50:12.685Z,1006.84
2019-03-06T06:51:13.470Z,1006.82
2019-03-06T06:52:12.720Z,1006.73
2019-03-06T06:53:12.648Z,1006.69
2019-03-06T06:54:12.674Z,1006.69
2019-03-06T06:55:12.649Z,1006.68
2019-03-06T06:56:12.669Z,1006.66
2019-03-06T06:57:12.619Z,1006.70
2019-03-06T06:58:12.662Z,1006.67
2019-03-06T06:59:12.608Z,1006.64
2019-03-06T07:00:12.580Z,1006.65
2019-03-06T07:01:12.584Z,1006.67
2019-03-06T07:02:12.565Z,1006.61
2019-03-06T07:03:12.546Z,1006.63
2019-03-06T07:04:12.576Z,1006.60
2019-03-06T07:05:12.556Z,1006.64
2019-03-06T07:06:12.497Z,1006.59
2019-03-06T07:07:12.972Z,1006.58
2019-03-06T07:08:12.554Z,1006.60
2019-03-06T07:09:12.481Z,1006.61
2019-03-06T07:10:12.456Z,1006.62
2019-03-06T07:11:12.503Z,1006.68
2019-03-06T07:12:12.460Z,1006.64
2019-03-06T07:13:12.970Z,1006.70
2019-03-06T07:14:12.443Z,1006.75
2019-03-06T07:15:12.461Z,1006.74
2019-03-06T07:16:12.392Z,1006.76
2019-03-06T07:17:12.973Z,1006.73
2019-03-06T07:18:12.411Z,1006.73
2019-03-06T07:19:12.973Z,1006.76
2019-03-06T07:20:12.369Z,1006.74
2019-03-06T07:21:12.371Z,1006.75
2019-03-06T07:22:12.327Z,1006.70
2019-03-06T07:23:12.973Z,1006.71
2019-03-06T07:24:12.338Z,1006.64
2019-03-06T07:25:12.303Z,1006.66
2019-03-06T07:26:12.974Z,1006.69
2019-03-06T07:27:12.269Z,1006.65
2019-03-06T07:28:12.590Z,1006.64
2019-03-06T07:29:12.276Z,1006.67
2019-03-06T07:30:12.252Z,1006.66
2019-03-06T07:31:12.268Z,1006.62
2019-03-06T07:32:12.234Z,1006.61
2019-03-06T07:33:12.219Z,1006.63
2019-03-06T07:34:12.205Z,1006.68
2019-03-06T07:35:12.222Z,1006.64
2019-03-06T07:36:12.984Z,1006.64
2019-03-06T07:37:12.153Z,1006.65
2019-03-06T07:38:12.183Z,1006.60
2019-03-06T07:39:12.132Z,1006.63
2019-03-06T07:40:12.177Z,1006.60
2019-03-06T07:41:12.976Z,1006.65
2019-03-06T07:42:12.976Z,1006.71
2019-03-06T07:43:12.128Z,1006.67
2019-03-06T07:44:12.086Z,1006.69
2019-03-06T07:45:12.158Z,1006.70
2019-03-06T07:46:12.057Z,1006.71
2019-03-06T07:47:12.055Z,1006.70
2019-03-06T07:48:12.110Z,1006.77
2019-03-06T07:49:12.065Z,1006.79
2019-03-06T07:50:12.038Z,1006.76
2019-03-06T07:51:12.031Z,1006.74
2019-03-06T07:52:12.978Z,1006.78
2019-03-06T07:53:12.977Z,1006.82
2019-03-06T07:54:11.984Z,1006.81
2019-03-06T07:55:11.959Z,1006.91
2019-03-06T07:56:11.986Z,1006.85
2019-03-06T07:57:11.996Z,1006.76
2019-03-06T07:58:11.973Z,1006.86
2019-03-06T07:59:11.963Z,1006.85
2019-03-06T08:00:11.933Z,1006.84
2019-03-06T08:01:16.982Z,1006.86
2019-03-06T08:02:12.908Z,1006.80
2019-03-06T08:03:11.887Z,1006.74
2019-03-06T08:04:12.481Z,1006.72
2019-03-06T08:05:11.881Z,1006.80
2019-03-06T08:06:11.832Z,1006.77
2019-03-06T08:07:11.872Z,1006.70
2019-03-06T08:08:12.514Z,1006.82
2019-03-06T08:09:11.827Z,1006.80
2019-03-06T08:10:11.809Z,1006.72
2019-03-06T08:11:11.839Z,1006.77
2019-03-06T08:12:12.503Z,1006.82
2019-03-06T08:13:12.496Z,1006.69
2019-03-06T08:14:21.873Z,1006.67
2019-03-06T08:15:12.768Z,1006.76
2019-03-06T08:16:11.722Z,1006.69
2019-03-06T08:17:11.728Z,1006.73
2019-03-06T08:18:11.726Z,1006.65
2019-03-06T08:19:11.742Z,1006.67
2019-03-06T08:20:11.738Z,1006.75
2019-03-06T08:21:12.483Z,1006.77
2019-03-06T08:22:11.652Z,1006.78
2019-03-06T08:23:18.828Z,1006.74
2019-03-06T08:24:18.851Z,1006.71
2019-03-06T08:25:11.610Z,1006.72
2019-03-06T08:26:11.628Z,1006.68
2019-03-06T08:27:11.604Z,1006.78
2019-03-06T08:28:11.625Z,1006.66
2019-03-06T08:29:11.570Z,1006.69
2019-03-06T08:30:11.560Z,1006.79
2019-03-06T08:31:11.548Z,1006.70
2019-03-06T08:32:11.529Z,1006.68
2019-03-06T08:33:17.877Z,1006.64
2019-03-06T08:34:12.518Z,1006.61
2019-03-06T08:35:11.516Z,1006.63
2019-03-06T08:36:11.502Z,1006.58
2019-03-06T08:37:11.683Z,1006.56
2019-03-06T08:38:11.455Z,1006.49
2019-03-06T08:39:11.457Z,1006.60
2019-03-06T08:40:11.436Z,1006.54
2019-03-06T08:41:11.443Z,1006.47
2019-03-06T08:42:11.454Z,1006.53
2019-03-06T08:43:11.442Z,1006.40
2019-03-06T08:44:11.508Z,1006.39
2019-03-06T08:45:11.411Z,1006.35
2019-03-06T08:46:18.690Z,1006.42
2019-03-06T08:47:11.354Z,1006.37
2019-03-06T08:48:11.357Z,1006.43
2019-03-06T08:49:11.373Z,1006.46
2019-03-06T08:50:11.587Z,1006.38
2019-03-06T08:51:11.313Z,1006.37
2019-03-06T08:52:11.301Z,1006.39
2019-03-06T08:53:11.359Z,1006.37
2019-03-06T08:54:11.373Z,1006.36
2019-03-06T08:55:11.321Z,1006.36
2019-03-06T08:56:11.313Z,1006.37
2019-03-06T08:57:11.318Z,1006.35
2019-03-06T08:58:11.265Z,1006.36
2019-03-06T08:59:11.317Z,1006.40
2019-03-06T09:00:11.231Z,1006.37
2019-03-06T09:01:11.301Z,1006.38
2019-03-06T09:02:15.610Z,1006.33
2019-03-06T09:03:11.222Z,1006.38
2019-03-06T09:04:11.312Z,1006.28
2019-03-06T09:05:11.215Z,1006.26
2019-03-06T09:06:11.150Z,1006.29
2019-03-06T09:07:11.198Z,1006.31
2019-03-06T09:08:11.144Z,1006.26
2019-03-06T09:09:12.068Z,1006.31
2019-03-06T09:10:12.069Z,1006.27
2019-03-06T09:11:12.055Z,1006.28
2019-03-06T09:12:12.079Z,1006.32
2019-03-06T09:13:11.100Z,1006.29
2019-03-06T09:14:11.075Z,1006.28
2019-03-06T09:15:11.561Z,1006.27
2019-03-06T09:16:11.570Z,1006.19
2019-03-06T09:17:11.565Z,1006.18
2019-03-06T09:18:11.044Z,1006.22
2019-03-06T09:19:11.025Z,1006.17
2019-03-06T09:20:11.575Z,1006.20
2019-03-06T09:21:10.999Z,1006.12
2019-03-06T09:22:11.108Z,1005.97
2019-03-06T09:23:10.978Z,1005.97
2019-03-06T09:24:11.574Z,1005.90
2019-03-06T09:25:10.987Z,1005.89
2019-03-06T09:26:10.952Z,1005.92
2019-03-06T09:27:10.951Z,1005.93
2019-03-06T09:28:11.622Z,1005.90
2019-03-06T09:29:10.899Z,1005.81
2019-03-06T09:30:16.071Z,1005.82
2019-03-06T09:31:11.956Z,1005.83
2019-03-06T09:32:10.871Z,1005.80
2019-03-06T09:33:10.857Z,1005.83
2019-03-06T09:34:10.899Z,1005.82
2019-03-06T09:35:11.617Z,1005.76
2019-03-06T09:36:10.845Z,1005.83
2019-03-06T09:37:10.841Z,1005.71
2019-03-06T09:38:11.439Z,1005.76
2019-03-06T09:39:10.885Z,1005.69
2019-03-06T09:40:10.796Z,1005.75
2019-03-06T09:41:10.831Z,1005.73
2019-03-06T09:42:10.769Z,1005.62
2019-03-06T09:43:10.789Z,1005.60
2019-03-06T09:44:10.757Z,1005.61
2019-03-06T09:45:10.760Z,1005.61
2019-03-06T09:46:10.778Z,1005.53
2019-03-06T09:47:10.693Z,1005.61
2019-03-06T09:48:12.692Z,1005.64
2019-03-06T09:49:11.835Z,1005.59
2019-03-06T09:50:10.660Z,1005.56
2019-03-06T09:51:12.137Z,1005.61
2019-03-06T09:52:10.658Z,1005.60
2019-03-06T09:53:10.634Z,1005.60
2019-03-06T09:54:10.615Z,1005.68
2019-03-06T09:55:10.630Z,1005.61
2019-03-06T09:56:10.672Z,1005.68
2019-03-06T09:57:10.646Z,1005.64
2019-03-06T09:58:11.065Z,1005.58
2019-03-06T09:59:11.105Z,1005.68
2019-03-06T10:00:10.575Z,1005.64
2019-03-06T10:01:11.080Z,1005.54
2019-03-06T10:02:10.520Z,1005.46
2019-03-06T10:03:10.516Z,1005.47
2019-03-06T10:04:10.521Z,1005.52
2019-03-06T10:05:10.507Z,1005.44
2019-03-06T10:06:10.516Z,1005.49
2019-03-06T10:07:10.483Z,1005.39
2019-03-06T10:08:10.462Z,1005.40
2019-03-06T10:09:10.447Z,1005.46
2019-03-06T10:10:10.477Z,1005.45
2019-03-06T10:11:11.068Z,1005.41
2019-03-06T10:12:10.412Z,1005.45
2019-03-06T10:13:11.100Z,1005.49
2019-03-06T10:14:10.396Z,1005.55
2019-03-06T10:15:10.452Z,1005.48
2019-03-06T10:16:10.385Z,1005.33
2019-03-06T10:17:11.080Z,1005.54
2019-03-06T10:18:10.345Z,1005.43
2019-03-06T10:19:11.074Z,1005.53
2019-03-06T10:20:11.071Z,1005.44
2019-03-06T10:21:11.074Z,1005.39
2019-03-06T10:22:10.333Z,1005.45
2019-03-06T10:23:10.299Z,1005.37
2019-03-06T10:24:11.078Z,1005.39
2019-03-06T10:25:10.260Z,1005.32
2019-03-06T10:26:10.303Z,1005.33
2019-03-06T10:27:11.173Z,1005.32
2019-03-06T10:28:10.295Z,1005.30
2019-03-06T10:29:10.207Z,1005.43
2019-03-06T10:30:10.192Z,1005.41
2019-03-06T10:31:10.176Z,1005.36
2019-03-06T10:32:10.173Z,1005.33
2019-03-06T10:33:10.152Z,1005.39
2019-03-06T10:34:10.149Z,1005.59
2019-03-06T10:35:10.204Z,1005.30
2019-03-06T10:36:10.119Z,1005.23
2019-03-06T10:37:10.127Z,1005.23
2019-03-06T10:38:16.491Z,1005.19
2019-03-06T10:39:11.082Z,1005.09
2019-03-06T10:40:10.076Z,1005.08
2019-03-06T10:41:10.060Z,1005.14
2019-03-06T10:42:10.059Z,1004.91
2019-03-06T10:43:10.039Z,1004.95
2019-03-06T10:44:10.029Z,1005.03
2019-03-06T10:45:10.018Z,1005.04
2019-03-06T10:46:10.007Z,1004.93
2019-03-06T10:47:10.005Z,1004.99
2019-03-06T10:48:09.982Z,1005.08
2019-03-06T10:49:09.971Z,1005.06
2019-03-06T10:50:09.961Z,1005.08
2019-03-06T10:51:09.951Z,1005.02
2019-03-06T10:52:09.949Z,1005.02
2019-03-06T10:53:09.931Z,1004.83
2019-03-06T10:54:09.915Z,1004.84
2019-03-06T10:55:09.904Z,1004.88
2019-03-06T10:56:09.892Z,1004.92
2019-03-06T10:57:11.839Z,1005.03
2019-03-06T10:58:09.872Z,1004.90
2019-03-06T10:59:09.859Z,1005.05
2019-03-06T11:00:09.853Z,1005.12
2019-03-06T11:01:09.840Z,1004.92
2019-03-06T11:02:09.837Z,1004.84
2019-03-06T11:03:09.815Z,1004.76
2019-03-06T11:04:09.801Z,1004.81
2019-03-06T11:05:09.793Z,1004.93
2019-03-06T11:06:09.790Z,1004.80
2019-03-06T11:07:09.784Z,1004.68
2019-03-06T11:08:09.760Z,1004.63
2019-03-06T11:09:09.748Z,1004.73
2019-03-06T11:10:09.736Z,1004.66
2019-03-06T11:11:09.727Z,1004.60
2019-03-06T11:12:09.723Z,1004.62
2019-03-06T11:13:09.703Z,1004.65
2019-03-06T11:14:09.700Z,1004.61
2019-03-06T11:15:09.686Z,1004.56
2019-03-06T11:16:09.670Z,1004.47
2019-03-06T11:17:09.672Z,1004.48
2019-03-06T11:18:09.652Z,1004.45
2019-03-06T11:19:09.634Z,1004.42
2019-03-06T11:20:09.622Z,1004.34
2019-03-06T11:21:09.621Z,1004.41
2019-03-06T11:22:09.619Z,1004.34
2019-03-06T11:23:09.601Z,1004.31
2019-03-06T11:24:09.606Z,1004.37
2019-03-06T11:25:09.628Z,1004.44
2019-03-06T11:26:09.585Z,1004.30
2019-03-06T11:27:09.573Z,1004.21
2019-03-06T11:28:09.582Z,1004.35
2019-03-06T11:29:09.563Z,1004.32
2019-03-06T11:30:09.541Z,1004.48
2019-03-06T11:31:09.602Z,1004.38
2019-03-06T11:32:09.544Z,1004.35
2019-03-06T11:33:09.543Z,1004.34
2019-03-06T11:34:09.545Z,1004.39
2019-03-06T11:35:09.500Z,1004.56
2019-03-06T11:36:09.467Z,1004.34
2019-03-06T11:37:09.479Z,1004.29
2019-03-06T11:38:09.465Z,1004.30
2019-03-06T11:39:09.438Z,1004.24
2019-03-06T11:40:09.473Z,1004.31
2019-03-06T11:41:09.422Z,1004.31
2019-03-06T11:42:09.703Z,1004.29
2019-03-06T11:43:09.416Z,1004.26
2019-03-06T11:44:09.391Z,1004.30
2019-03-06T11:45:09.369Z,1004.24
2019-03-06T11:46:09.389Z,1004.19
2019-03-06T11:47:09.350Z,1004.23
2019-03-06T11:48:09.390Z,1004.19
2019-03-06T11:49:09.349Z,1004.24
2019-03-06T11:50:09.364Z,1004.14
2019-03-06T11:51:09.296Z,1004.16
2019-03-06T11:52:09.294Z,1004.15
2019-03-06T11:53:09.296Z,1004.14
2019-03-06T11:54:09.286Z,1004.19
2019-03-06T11:55:09.709Z,1004.04
2019-03-06T11:56:09.259Z,1004.00
2019-03-06T11:57:09.239Z,1004.02
2019-03-06T11:58:09.288Z,1003.97
2019-03-06T11:59:09.210Z,1003.99
2019-03-06T12:00:09.224Z,1004.00
2019-03-06T12:01:09.182Z,1004.05
2019-03-06T12:02:11.132Z,1003.92
2019-03-06T12:03:09.173Z,1003.86
2019-03-06T12:04:09.166Z,1003.90
2019-03-06T12:05:09.161Z,1003.89
2019-03-06T12:06:09.152Z,1003.77
2019-03-06T12:07:09.137Z,1003.73
2019-03-06T12:08:09.133Z,1003.74